sensor_id;sensor_type;location;lat;lon;timestamp;temperature;humidity
10678;DHT22;5387;48.722;9.110;2023-05-07T00:02:16;12.40;99.90
10678;DHT22;5387;48.722;9.110;2023-05-07T00:04:44;12.20;99.90
10678;DHT22;5387;48.722;9.110;2023-05-07T00:07:11;12.10;99.90
10678;DHT22;5387;48.722;9.110;2023-05-07T00:09:38;12.00;99.90
10678;DHT22;5387;48.722;9.110;2023-05-07T00:12:05;12.10;99.90
10678;DHT22;5387;48.722;9.110;2023-05-07T00:14:32;12.10;99.90
10678;DHT22;5387;48.722;9.110;2023-05-07T00:16:59;12.10;99.90
10678;DHT22;5387;48.722;9.110;2023-05-07T00:19:26;12.10;99.90
10678;DHT22;5387;48.722;9.110;2023-05-07T00:21:54;12.10;99.90
10678;DHT22;5387;48.722;9.110;2023-05-07T00:24:21;12.10;99.90
10678;DHT22;5387;48.722;9.110;2023-05-07T00:26:48;12.10;99.90
10678;DHT22;5387;48.722;9.110;2023-05-07T00:29:15;12.10;99.90
10678;DHT22;5387;48.722;9.110;2023-05-07T00:31:41;12.20;99.90
10678;DHT22;5387;48.722;9.110;2023-05-07T00:34:08;12.10;99.90
10678;DHT22;5387;48.722;9.110;2023-05-07T00:36:35;12.10;99.90
10678;DHT22;5387;48.722;9.110;2023-05-07T00:39:03;12.10;99.90
10678;DHT22;5387;48.722;9.110;2023-05-07T00:41:30;12.10;99.90
10678;DHT22;5387;48.722;9.110;2023-05-07T00:43:57;12.20;99.90
10678;DHT22;5387;48.722;9.110;2023-05-07T00:46:24;12.10;99.90
10678;DHT22;5387;48.722;9.110;2023-05-07T00:48:51;12.10;99.90
10678;DHT22;5387;48.722;9.110;2023-05-07T00:51:18;12.00;99.90
10678;DHT22;5387;48.722;9.110;2023-05-07T00:53:46;12.00;99.90
10678;DHT22;5387;48.722;9.110;2023-05-07T00:56:15;12.00;99.90
10678;DHT22;5387;48.722;9.110;2023-05-07T00:58:42;12.00;99.90
10678;DHT22;5387;48.722;9.110;2023-05-07T01:01:09;12.00;99.90
10678;DHT22;5387;48.722;9.110;2023-05-07T01:03:36;12.10;99.90
10678;DHT22;5387;48.722;9.110;2023-05-07T01:06:03;11.90;99.90
10678;DHT22;5387;48.722;9.110;2023-05-07T01:08:31;12.00;99.90
10678;DHT22;5387;48.722;9.110;2023-05-07T01:11:00;12.00;99.90
10678;DHT22;5387;48.722;9.110;2023-05-07T01:13:29;11.80;99.90
10678;DHT22;5387;48.722;9.110;2023-05-07T01:15:56;11.90;99.90
10678;DHT22;5387;48.722;9.110;2023-05-07T01:18:23;11.90;99.90
10678;DHT22;5387;48.722;9.110;2023-05-07T01:20:51;11.90;99.90
10678;DHT22;5387;48.722;9.110;2023-05-07T01:23:20;11.90;99.90
10678;DHT22;5387;48.722;9.110;2023-05-07T01:25:51;11.90;99.90
10678;DHT22;5387;48.722;9.110;2023-05-07T01:28:18;11.90;99.90
10678;DHT22;5387;48.722;9.110;2023-05-07T01:30:48;11.90;99.90
10678;DHT22;5387;48.722;9.110;2023-05-07T01:33:19;11.80;99.90
10678;DHT22;5387;48.722;9.110;2023-05-07T01:35:48;11.90;99.90
10678;DHT22;5387;48.722;9.110;2023-05-07T01:38:16;11.80;99.90
10678;DHT22;5387;48.722;9.110;2023-05-07T01:40:45;11.80;99.90
10678;DHT22;5387;48.722;9.110;2023-05-07T01:43:12;11.90;99.90
10678;DHT22;5387;48.722;9.110;2023-05-07T01:45:40;11.80;99.90
10678;DHT22;5387;48.722;9.110;2023-05-07T01:48:10;11.70;99.90
10678;DHT22;5387;48.722;9.110;2023-05-07T01:50:38;11.80;99.90
10678;DHT22;5387;48.722;9.110;2023-05-07T01:53:06;11.70;99.90
10678;DHT22;5387;48.722;9.110;2023-05-07T01:55:32;11.70;99.90
10678;DHT22;5387;48.722;9.110;2023-05-07T01:58:00;11.70;99.90
10678;DHT22;5387;48.722;9.110;2023-05-07T02:00:27;11.80;99.90
10678;DHT22;5387;48.722;9.110;2023-05-07T02:02:54;11.70;99.90
10678;DHT22;5387;48.722;9.110;2023-05-07T02:05:22;11.70;99.90
10678;DHT22;5387;48.722;9.110;2023-05-07T02:07:49;11.80;99.90
10678;DHT22;5387;48.722;9.110;2023-05-07T02:10:15;11.90;99.90
10678;DHT22;5387;48.722;9.110;2023-05-07T02:12:42;11.80;99.90
10678;DHT22;5387;48.722;9.110;2023-05-07T02:15:11;11.90;99.90
10678;DHT22;5387;48.722;9.110;2023-05-07T02:17:40;11.90;99.90
10678;DHT22;5387;48.722;9.110;2023-05-07T02:20:24;11.80;99.90
10678;DHT22;5387;48.722;9.110;2023-05-07T02:22:51;11.80;99.90
10678;DHT22;5387;48.722;9.110;2023-05-07T02:25:17;11.80;99.90
10678;DHT22;5387;48.722;9.110;2023-05-07T02:27:44;11.90;99.90
10678;DHT22;5387;48.722;9.110;2023-05-07T02:30:13;11.80;99.90
10678;DHT22;5387;48.722;9.110;2023-05-07T02:32:40;11.80;99.90
10678;DHT22;5387;48.722;9.110;2023-05-07T02:35:07;11.80;99.90
10678;DHT22;5387;48.722;9.110;2023-05-07T02:37:34;11.80;99.90
10678;DHT22;5387;48.722;9.110;2023-05-07T02:40:01;11.70;99.90
10678;DHT22;5387;48.722;9.110;2023-05-07T02:42:29;11.70;99.90
10678;DHT22;5387;48.722;9.110;2023-05-07T02:44:56;11.70;99.90
10678;DHT22;5387;48.722;9.110;2023-05-07T02:47:24;11.70;99.90
10678;DHT22;5387;48.722;9.110;2023-05-07T02:49:52;11.80;99.90
10678;DHT22;5387;48.722;9.110;2023-05-07T02:52:19;11.70;99.90
10678;DHT22;5387;48.722;9.110;2023-05-07T02:54:46;11.60;99.90
10678;DHT22;5387;48.722;9.110;2023-05-07T02:57:12;11.70;99.90
10678;DHT22;5387;48.722;9.110;2023-05-07T02:59:39;11.60;99.90
10678;DHT22;5387;48.722;9.110;2023-05-07T03:02:06;11.50;99.90
10678;DHT22;5387;48.722;9.110;2023-05-07T03:04:34;11.50;99.90
10678;DHT22;5387;48.722;9.110;2023-05-07T03:07:01;11.50;99.90
10678;DHT22;5387;48.722;9.110;2023-05-07T03:09:27;11.50;99.90
10678;DHT22;5387;48.722;9.110;2023-05-07T03:11:54;11.50;99.90
10678;DHT22;5387;48.722;9.110;2023-05-07T03:14:21;11.40;99.90
10678;DHT22;5387;48.722;9.110;2023-05-07T03:16:49;11.40;99.90
10678;DHT22;5387;48.722;9.110;2023-05-07T03:19:16;11.40;99.90
10678;DHT22;5387;48.722;9.110;2023-05-07T03:21:44;11.30;99.90
10678;DHT22;5387;48.722;9.110;2023-05-07T03:24:11;11.30;99.90
10678;DHT22;5387;48.722;9.110;2023-05-07T03:26:38;11.20;99.90
10678;DHT22;5387;48.722;9.110;2023-05-07T03:29:04;11.10;99.90
10678;DHT22;5387;48.722;9.110;2023-05-07T03:31:31;11.10;99.90
10678;DHT22;5387;48.722;9.110;2023-05-07T03:33:58;11.00;99.90
10678;DHT22;5387;48.722;9.110;2023-05-07T03:36:25;10.90;99.90
10678;DHT22;5387;48.722;9.110;2023-05-07T03:38:54;11.00;99.90
10678;DHT22;5387;48.722;9.110;2023-05-07T03:41:21;10.90;99.90
10678;DHT22;5387;48.722;9.110;2023-05-07T03:43:48;10.80;99.90
10678;DHT22;5387;48.722;9.110;2023-05-07T03:46:14;10.90;99.90
10678;DHT22;5387;48.722;9.110;2023-05-07T03:48:41;10.90;99.90
10678;DHT22;5387;48.722;9.110;2023-05-07T03:51:08;10.80;99.90
10678;DHT22;5387;48.722;9.110;2023-05-07T03:53:35;10.80;99.90
10678;DHT22;5387;48.722;9.110;2023-05-07T03:56:04;10.80;99.90
10678;DHT22;5387;48.722;9.110;2023-05-07T03:58:30;10.80;99.90
10678;DHT22;5387;48.722;9.110;2023-05-07T04:00:57;10.90;99.90
10678;DHT22;5387;48.722;9.110;2023-05-07T04:03:24;10.80;99.90
10678;DHT22;5387;48.722;9.110;2023-05-07T04:05:51;10.80;99.90
10678;DHT22;5387;48.722;9.110;2023-05-07T04:08:17;10.90;99.90
10678;DHT22;5387;48.722;9.110;2023-05-07T04:10:44;10.90;99.90
10678;DHT22;5387;48.722;9.110;2023-05-07T04:13:13;10.80;99.90
10678;DHT22;5387;48.722;9.110;2023-05-07T04:15:39;10.80;99.90
10678;DHT22;5387;48.722;9.110;2023-05-07T04:18:06;10.70;99.90
10678;DHT22;5387;48.722;9.110;2023-05-07T04:20:34;10.70;99.90
10678;DHT22;5387;48.722;9.110;2023-05-07T04:23:02;10.90;99.90
10678;DHT22;5387;48.722;9.110;2023-05-07T04:25:28;10.80;99.90
10678;DHT22;5387;48.722;9.110;2023-05-07T04:27:56;10.90;99.90
10678;DHT22;5387;48.722;9.110;2023-05-07T04:30:24;11.00;99.90
10678;DHT22;5387;48.722;9.110;2023-05-07T04:32:51;10.90;99.90
10678;DHT22;5387;48.722;9.110;2023-05-07T04:35:18;10.90;99.90
10678;DHT22;5387;48.722;9.110;2023-05-07T04:37:45;11.00;99.90
10678;DHT22;5387;48.722;9.110;2023-05-07T04:40:12;11.00;99.90
10678;DHT22;5387;48.722;9.110;2023-05-07T04:42:38;11.00;99.90
10678;DHT22;5387;48.722;9.110;2023-05-07T04:45:06;11.10;99.90
10678;DHT22;5387;48.722;9.110;2023-05-07T04:47:35;11.00;99.90
10678;DHT22;5387;48.722;9.110;2023-05-07T04:50:02;11.10;99.90
10678;DHT22;5387;48.722;9.110;2023-05-07T04:52:29;11.10;99.90
10678;DHT22;5387;48.722;9.110;2023-05-07T04:54:58;11.10;99.90
10678;DHT22;5387;48.722;9.110;2023-05-07T04:57:25;11.10;99.90
10678;DHT22;5387;48.722;9.110;2023-05-07T04:59:52;11.10;99.90
10678;DHT22;5387;48.722;9.110;2023-05-07T05:02:19;11.20;99.90
10678;DHT22;5387;48.722;9.110;2023-05-07T05:04:47;11.20;99.90
10678;DHT22;5387;48.722;9.110;2023-05-07T05:07:14;11.20;99.90
10678;DHT22;5387;48.722;9.110;2023-05-07T05:09:41;11.30;99.90
10678;DHT22;5387;48.722;9.110;2023-05-07T05:12:07;11.30;99.90
10678;DHT22;5387;48.722;9.110;2023-05-07T05:14:35;11.30;99.90
10678;DHT22;5387;48.722;9.110;2023-05-07T05:17:02;11.50;99.90
10678;DHT22;5387;48.722;9.110;2023-05-07T05:19:28;11.60;99.90
10678;DHT22;5387;48.722;9.110;2023-05-07T05:21:57;11.90;99.90
10678;DHT22;5387;48.722;9.110;2023-05-07T05:24:23;12.20;99.90
10678;DHT22;5387;48.722;9.110;2023-05-07T05:26:53;12.40;99.90
10678;DHT22;5387;48.722;9.110;2023-05-07T05:29:20;12.50;99.90
10678;DHT22;5387;48.722;9.110;2023-05-07T05:31:46;12.70;99.90
10678;DHT22;5387;48.722;9.110;2023-05-07T05:34:13;13.10;99.90
10678;DHT22;5387;48.722;9.110;2023-05-07T05:36:40;13.30;99.90
10678;DHT22;5387;48.722;9.110;2023-05-07T05:39:08;13.40;99.90
10678;DHT22;5387;48.722;9.110;2023-05-07T05:41:35;13.60;99.90
10678;DHT22;5387;48.722;9.110;2023-05-07T05:44:02;13.90;99.90
10678;DHT22;5387;48.722;9.110;2023-05-07T05:46:29;14.10;99.90
10678;DHT22;5387;48.722;9.110;2023-05-07T05:48:56;14.30;99.90
10678;DHT22;5387;48.722;9.110;2023-05-07T05:51:23;14.40;99.90
10678;DHT22;5387;48.722;9.110;2023-05-07T05:53:52;14.50;99.90
10678;DHT22;5387;48.722;9.110;2023-05-07T05:56:20;14.60;99.90
10678;DHT22;5387;48.722;9.110;2023-05-07T05:58:47;14.90;99.90
10678;DHT22;5387;48.722;9.110;2023-05-07T06:01:14;15.00;99.90
10678;DHT22;5387;48.722;9.110;2023-05-07T06:03:41;15.10;99.90
10678;DHT22;5387;48.722;9.110;2023-05-07T06:06:07;15.30;99.90
10678;DHT22;5387;48.722;9.110;2023-05-07T06:08:34;15.20;99.90
10678;DHT22;5387;48.722;9.110;2023-05-07T06:11:01;15.20;99.90
10678;DHT22;5387;48.722;9.110;2023-05-07T06:13:30;15.10;99.90
10678;DHT22;5387;48.722;9.110;2023-05-07T06:15:56;15.30;99.90
10678;DHT22;5387;48.722;9.110;2023-05-07T06:18:23;15.40;99.90
10678;DHT22;5387;48.722;9.110;2023-05-07T06:20:51;15.30;99.90
10678;DHT22;5387;48.722;9.110;2023-05-07T06:23:18;15.40;99.90
10678;DHT22;5387;48.722;9.110;2023-05-07T06:25:48;15.40;99.90
10678;DHT22;5387;48.722;9.110;2023-05-07T06:28:15;15.60;99.90
10678;DHT22;5387;48.722;9.110;2023-05-07T06:30:43;15.60;99.90
10678;DHT22;5387;48.722;9.110;2023-05-07T06:33:10;15.80;99.90
10678;DHT22;5387;48.722;9.110;2023-05-07T06:35:37;15.50;99.90
10678;DHT22;5387;48.722;9.110;2023-05-07T06:38:04;15.50;99.90
10678;DHT22;5387;48.722;9.110;2023-05-07T06:40:30;15.60;99.90
10678;DHT22;5387;48.722;9.110;2023-05-07T06:42:57;15.60;99.90
10678;DHT22;5387;48.722;9.110;2023-05-07T06:45:24;15.60;99.90
10678;DHT22;5387;48.722;9.110;2023-05-07T06:47:52;15.30;99.90
10678;DHT22;5387;48.722;9.110;2023-05-07T06:50:19;15.20;99.90
10678;DHT22;5387;48.722;9.110;2023-05-07T06:52:46;15.50;99.90
10678;DHT22;5387;48.722;9.110;2023-05-07T06:55:13;15.50;99.90
10678;DHT22;5387;48.722;9.110;2023-05-07T06:57:40;15.70;99.90
10678;DHT22;5387;48.722;9.110;2023-05-07T07:00:08;16.00;99.90
10678;DHT22;5387;48.722;9.110;2023-05-07T07:02:36;16.00;99.90
10678;DHT22;5387;48.722;9.110;2023-05-07T07:05:06;16.10;99.90
10678;DHT22;5387;48.722;9.110;2023-05-07T07:07:33;16.30;99.90
10678;DHT22;5387;48.722;9.110;2023-05-07T07:09:59;16.50;99.90
10678;DHT22;5387;48.722;9.110;2023-05-07T07:12:26;16.60;99.90
10678;DHT22;5387;48.722;9.110;2023-05-07T07:14:54;16.90;99.90
10678;DHT22;5387;48.722;9.110;2023-05-07T07:17:21;17.10;99.90
10678;DHT22;5387;48.722;9.110;2023-05-07T07:19:47;17.50;99.90
10678;DHT22;5387;48.722;9.110;2023-05-07T07:22:16;17.60;99.90
10678;DHT22;5387;48.722;9.110;2023-05-07T07:24:43;18.10;99.90
10678;DHT22;5387;48.722;9.110;2023-05-07T07:27:09;18.40;99.90
10678;DHT22;5387;48.722;9.110;2023-05-07T07:29:36;18.80;99.90
10678;DHT22;5387;48.722;9.110;2023-05-07T07:32:03;19.10;99.90
10678;DHT22;5387;48.722;9.110;2023-05-07T07:34:30;19.60;99.90
10678;DHT22;5387;48.722;9.110;2023-05-07T07:36:57;19.80;99.90
10678;DHT22;5387;48.722;9.110;2023-05-07T07:39:25;20.30;99.90
10678;DHT22;5387;48.722;9.110;2023-05-07T07:41:52;20.40;99.90
10678;DHT22;5387;48.722;9.110;2023-05-07T07:44:19;20.30;99.90
10678;DHT22;5387;48.722;9.110;2023-05-07T07:46:46;20.20;99.90
10678;DHT22;5387;48.722;9.110;2023-05-07T07:49:14;20.30;99.90
10678;DHT22;5387;48.722;9.110;2023-05-07T07:51:41;20.20;99.90
10678;DHT22;5387;48.722;9.110;2023-05-07T07:54:08;20.30;99.90
10678;DHT22;5387;48.722;9.110;2023-05-07T07:56:36;20.10;99.90
10678;DHT22;5387;48.722;9.110;2023-05-07T07:59:03;20.10;99.90
10678;DHT22;5387;48.722;9.110;2023-05-07T08:01:30;20.30;99.90
10678;DHT22;5387;48.722;9.110;2023-05-07T08:03:57;20.20;99.90
10678;DHT22;5387;48.722;9.110;2023-05-07T08:06:24;20.40;99.90
10678;DHT22;5387;48.722;9.110;2023-05-07T08:08:51;20.40;99.90
10678;DHT22;5387;48.722;9.110;2023-05-07T08:11:18;20.40;99.90
10678;DHT22;5387;48.722;9.110;2023-05-07T08:13:46;20.40;99.90
10678;DHT22;5387;48.722;9.110;2023-05-07T08:16:13;20.60;99.90
10678;DHT22;5387;48.722;9.110;2023-05-07T08:18:40;20.70;99.90
10678;DHT22;5387;48.722;9.110;2023-05-07T08:21:07;20.90;99.90
10678;DHT22;5387;48.722;9.110;2023-05-07T08:23:34;20.90;99.90
10678;DHT22;5387;48.722;9.110;2023-05-07T08:26:00;21.00;99.90
10678;DHT22;5387;48.722;9.110;2023-05-07T08:28:27;20.60;99.90
10678;DHT22;5387;48.722;9.110;2023-05-07T08:30:55;20.30;99.90
10678;DHT22;5387;48.722;9.110;2023-05-07T08:33:25;20.40;99.90
10678;DHT22;5387;48.722;9.110;2023-05-07T08:35:52;20.60;99.90
10678;DHT22;5387;48.722;9.110;2023-05-07T08:38:18;20.60;99.90
10678;DHT22;5387;48.722;9.110;2023-05-07T08:40:45;20.50;99.90
10678;DHT22;5387;48.722;9.110;2023-05-07T08:43:13;20.40;99.90
10678;DHT22;5387;48.722;9.110;2023-05-07T08:45:40;20.50;99.90
10678;DHT22;5387;48.722;9.110;2023-05-07T08:48:17;20.60;99.90
10678;DHT22;5387;48.722;9.110;2023-05-07T08:50:44;20.70;99.90
10678;DHT22;5387;48.722;9.110;2023-05-07T08:53:11;20.80;99.90
10678;DHT22;5387;48.722;9.110;2023-05-07T08:55:38;20.70;99.90
10678;DHT22;5387;48.722;9.110;2023-05-07T08:58:05;20.90;99.90
10678;DHT22;5387;48.722;9.110;2023-05-07T09:00:32;20.90;99.90
10678;DHT22;5387;48.722;9.110;2023-05-07T09:03:00;21.20;99.90
10678;DHT22;5387;48.722;9.110;2023-05-07T09:05:28;21.10;99.90
10678;DHT22;5387;48.722;9.110;2023-05-07T09:07:58;21.30;99.90
10678;DHT22;5387;48.722;9.110;2023-05-07T09:10:26;21.40;99.90
10678;DHT22;5387;48.722;9.110;2023-05-07T09:12:53;21.30;99.90
10678;DHT22;5387;48.722;9.110;2023-05-07T09:15:19;21.30;99.90
10678;DHT22;5387;48.722;9.110;2023-05-07T09:17:46;21.30;99.90
10678;DHT22;5387;48.722;9.110;2023-05-07T09:20:13;21.30;99.90
10678;DHT22;5387;48.722;9.110;2023-05-07T09:22:41;21.20;99.90
10678;DHT22;5387;48.722;9.110;2023-05-07T09:25:09;21.50;99.90
10678;DHT22;5387;48.722;9.110;2023-05-07T09:27:36;21.50;99.90
10678;DHT22;5387;48.722;9.110;2023-05-07T09:30:04;21.40;99.90
10678;DHT22;5387;48.722;9.110;2023-05-07T09:32:34;21.50;99.90
10678;DHT22;5387;48.722;9.110;2023-05-07T09:35:01;21.60;99.90
10678;DHT22;5387;48.722;9.110;2023-05-07T09:37:30;21.50;99.90
10678;DHT22;5387;48.722;9.110;2023-05-07T09:39:59;21.40;99.90
10678;DHT22;5387;48.722;9.110;2023-05-07T09:42:26;21.50;99.90
10678;DHT22;5387;48.722;9.110;2023-05-07T09:44:53;21.70;99.90
10678;DHT22;5387;48.722;9.110;2023-05-07T09:47:23;21.80;99.90
10678;DHT22;5387;48.722;9.110;2023-05-07T09:49:50;21.90;99.90
10678;DHT22;5387;48.722;9.110;2023-05-07T09:52:21;22.00;99.90
10678;DHT22;5387;48.722;9.110;2023-05-07T09:54:48;22.20;99.90
10678;DHT22;5387;48.722;9.110;2023-05-07T09:57:19;22.10;99.90
10678;DHT22;5387;48.722;9.110;2023-05-07T09:59:47;22.40;99.90
10678;DHT22;5387;48.722;9.110;2023-05-07T10:02:14;22.50;99.90
10678;DHT22;5387;48.722;9.110;2023-05-07T10:04:42;22.70;99.90
10678;DHT22;5387;48.722;9.110;2023-05-07T10:07:09;23.10;99.90
10678;DHT22;5387;48.722;9.110;2023-05-07T10:09:37;23.10;99.90
10678;DHT22;5387;48.722;9.110;2023-05-07T10:12:07;23.10;99.90
10678;DHT22;5387;48.722;9.110;2023-05-07T10:14:37;23.20;99.90
10678;DHT22;5387;48.722;9.110;2023-05-07T10:17:04;23.60;99.90
10678;DHT22;5387;48.722;9.110;2023-05-07T10:19:31;23.90;99.90
10678;DHT22;5387;48.722;9.110;2023-05-07T10:22:03;24.00;99.90
10678;DHT22;5387;48.722;9.110;2023-05-07T10:24:32;24.20;99.90
10678;DHT22;5387;48.722;9.110;2023-05-07T10:27:01;24.40;99.90
10678;DHT22;5387;48.722;9.110;2023-05-07T10:29:33;24.40;99.90
10678;DHT22;5387;48.722;9.110;2023-05-07T10:32:14;24.70;99.90
10678;DHT22;5387;48.722;9.110;2023-05-07T10:34:47;24.90;99.90
10678;DHT22;5387;48.722;9.110;2023-05-07T10:37:15;24.80;99.90
10678;DHT22;5387;48.722;9.110;2023-05-07T10:39:42;24.90;99.90
10678;DHT22;5387;48.722;9.110;2023-05-07T10:42:10;24.50;99.90
10678;DHT22;5387;48.722;9.110;2023-05-07T10:44:36;24.50;99.90
10678;DHT22;5387;48.722;9.110;2023-05-07T10:47:09;24.60;99.90
10678;DHT22;5387;48.722;9.110;2023-05-07T10:49:37;24.80;99.90
10678;DHT22;5387;48.722;9.110;2023-05-07T10:52:15;25.00;99.90
10678;DHT22;5387;48.722;9.110;2023-05-07T10:54:42;25.50;99.90
10678;DHT22;5387;48.722;9.110;2023-05-07T10:57:34;25.70;99.90
10678;DHT22;5387;48.722;9.110;2023-05-07T11:00:42;25.60;99.90
10678;DHT22;5387;48.722;9.110;2023-05-07T11:03:11;25.40;99.90
10678;DHT22;5387;48.722;9.110;2023-05-07T11:05:38;25.50;99.90
10678;DHT22;5387;48.722;9.110;2023-05-07T11:08:05;25.50;99.90
10678;DHT22;5387;48.722;9.110;2023-05-07T11:10:49;25.70;99.90
10678;DHT22;5387;48.722;9.110;2023-05-07T11:13:16;25.90;99.90
10678;DHT22;5387;48.722;9.110;2023-05-07T11:15:45;26.00;99.90
10678;DHT22;5387;48.722;9.110;2023-05-07T11:18:14;25.80;99.90
10678;DHT22;5387;48.722;9.110;2023-05-07T11:20:50;25.40;99.90
10678;DHT22;5387;48.722;9.110;2023-05-07T11:26:44;24.80;99.90
10678;DHT22;5387;48.722;9.110;2023-05-07T11:29:12;24.40;99.90
10678;DHT22;5387;48.722;9.110;2023-05-07T11:31:39;24.10;99.90
10678;DHT22;5387;48.722;9.110;2023-05-07T11:34:08;23.70;99.90
10678;DHT22;5387;48.722;9.110;2023-05-07T11:36:36;23.60;99.90
10678;DHT22;5387;48.722;9.110;2023-05-07T11:39:23;23.40;99.90
10678;DHT22;5387;48.722;9.110;2023-05-07T11:41:50;23.30;99.90
10678;DHT22;5387;48.722;9.110;2023-05-07T11:44:17;23.00;99.90
10678;DHT22;5387;48.722;9.110;2023-05-07T11:46:44;23.00;99.90
10678;DHT22;5387;48.722;9.110;2023-05-07T11:49:12;23.00;99.90
10678;DHT22;5387;48.722;9.110;2023-05-07T11:51:39;22.80;99.90
10678;DHT22;5387;48.722;9.110;2023-05-07T11:54:08;22.80;99.90
10678;DHT22;5387;48.722;9.110;2023-05-07T11:56:37;22.70;99.90
10678;DHT22;5387;48.722;9.110;2023-05-07T11:59:04;22.50;99.90
10678;DHT22;5387;48.722;9.110;2023-05-07T12:01:31;22.30;99.90
10678;DHT22;5387;48.722;9.110;2023-05-07T12:03:58;21.50;99.90
10678;DHT22;5387;48.722;9.110;2023-05-07T12:06:30;20.60;99.90
10678;DHT22;5387;48.722;9.110;2023-05-07T12:08:57;19.60;99.90
10678;DHT22;5387;48.722;9.110;2023-05-07T12:11:24;18.90;99.90
10678;DHT22;5387;48.722;9.110;2023-05-07T12:13:53;18.60;99.90
10678;DHT22;5387;48.722;9.110;2023-05-07T12:16:20;18.40;99.90
10678;DHT22;5387;48.722;9.110;2023-05-07T12:18:47;18.20;99.90
10678;DHT22;5387;48.722;9.110;2023-05-07T12:21:15;18.10;99.90
10678;DHT22;5387;48.722;9.110;2023-05-07T12:23:44;17.90;99.90
10678;DHT22;5387;48.722;9.110;2023-05-07T12:26:11;17.50;99.90
10678;DHT22;5387;48.722;9.110;2023-05-07T12:28:38;17.50;99.90
10678;DHT22;5387;48.722;9.110;2023-05-07T12:31:06;17.40;99.90
10678;DHT22;5387;48.722;9.110;2023-05-07T12:33:34;17.30;99.90
10678;DHT22;5387;48.722;9.110;2023-05-07T12:36:05;17.30;99.90
10678;DHT22;5387;48.722;9.110;2023-05-07T12:38:36;17.30;99.90
10678;DHT22;5387;48.722;9.110;2023-05-07T12:41:06;17.20;99.90
10678;DHT22;5387;48.722;9.110;2023-05-07T12:43:33;17.10;99.90
10678;DHT22;5387;48.722;9.110;2023-05-07T12:46:01;16.60;99.90
10678;DHT22;5387;48.722;9.110;2023-05-07T12:48:28;16.40;99.90
10678;DHT22;5387;48.722;9.110;2023-05-07T12:50:56;16.20;99.90
10678;DHT22;5387;48.722;9.110;2023-05-07T12:53:25;16.10;99.90
10678;DHT22;5387;48.722;9.110;2023-05-07T12:55:54;15.90;99.90
10678;DHT22;5387;48.722;9.110;2023-05-07T12:58:25;15.80;99.90
10678;DHT22;5387;48.722;9.110;2023-05-07T13:00:52;15.60;99.90
10678;DHT22;5387;48.722;9.110;2023-05-07T13:03:24;15.50;99.90
10678;DHT22;5387;48.722;9.110;2023-05-07T13:05:51;15.60;99.90
10678;DHT22;5387;48.722;9.110;2023-05-07T13:08:24;15.80;99.90
10678;DHT22;5387;48.722;9.110;2023-05-07T13:10:51;15.80;99.90
10678;DHT22;5387;48.722;9.110;2023-05-07T13:13:18;15.60;99.90
10678;DHT22;5387;48.722;9.110;2023-05-07T13:15:47;15.40;99.90
10678;DHT22;5387;48.722;9.110;2023-05-07T13:18:13;15.20;99.90
10678;DHT22;5387;48.722;9.110;2023-05-07T13:20:40;15.10;99.90
10678;DHT22;5387;48.722;9.110;2023-05-07T13:23:07;14.90;99.90
10678;DHT22;5387;48.722;9.110;2023-05-07T13:25:34;14.90;99.90
10678;DHT22;5387;48.722;9.110;2023-05-07T13:28:01;14.80;99.90
10678;DHT22;5387;48.722;9.110;2023-05-07T13:30:28;14.90;99.90
10678;DHT22;5387;48.722;9.110;2023-05-07T13:32:56;15.10;99.90
10678;DHT22;5387;48.722;9.110;2023-05-07T13:35:23;15.00;99.90
10678;DHT22;5387;48.722;9.110;2023-05-07T13:37:50;15.00;99.90
10678;DHT22;5387;48.722;9.110;2023-05-07T13:40:18;15.10;99.90
10678;DHT22;5387;48.722;9.110;2023-05-07T13:42:45;14.80;99.90
10678;DHT22;5387;48.722;9.110;2023-05-07T13:45:12;14.80;99.90
10678;DHT22;5387;48.722;9.110;2023-05-07T13:47:39;14.80;99.90
10678;DHT22;5387;48.722;9.110;2023-05-07T13:50:09;14.80;99.90
10678;DHT22;5387;48.722;9.110;2023-05-07T13:52:36;14.60;99.90
10678;DHT22;5387;48.722;9.110;2023-05-07T13:55:04;14.20;99.90
10678;DHT22;5387;48.722;9.110;2023-05-07T13:57:31;13.90;99.90
10678;DHT22;5387;48.722;9.110;2023-05-07T13:59:58;13.80;99.90
10678;DHT22;5387;48.722;9.110;2023-05-07T14:02:24;13.70;99.90
10678;DHT22;5387;48.722;9.110;2023-05-07T14:04:51;13.50;99.90
10678;DHT22;5387;48.722;9.110;2023-05-07T14:07:19;13.70;99.90
10678;DHT22;5387;48.722;9.110;2023-05-07T14:09:46;13.50;99.90
10678;DHT22;5387;48.722;9.110;2023-05-07T14:12:13;13.90;99.90
10678;DHT22;5387;48.722;9.110;2023-05-07T14:14:39;13.70;99.90
10678;DHT22;5387;48.722;9.110;2023-05-07T14:17:07;13.80;99.90
10678;DHT22;5387;48.722;9.110;2023-05-07T14:19:34;13.70;99.90
10678;DHT22;5387;48.722;9.110;2023-05-07T14:22:01;13.70;99.90
10678;DHT22;5387;48.722;9.110;2023-05-07T14:24:29;13.70;99.90
10678;DHT22;5387;48.722;9.110;2023-05-07T14:26:56;13.60;99.90
10678;DHT22;5387;48.722;9.110;2023-05-07T14:29:23;13.60;99.90
10678;DHT22;5387;48.722;9.110;2023-05-07T14:31:49;13.60;99.90
10678;DHT22;5387;48.722;9.110;2023-05-07T14:34:16;13.60;99.90
10678;DHT22;5387;48.722;9.110;2023-05-07T14:36:43;13.70;99.90
10678;DHT22;5387;48.722;9.110;2023-05-07T14:39:10;13.60;99.90
10678;DHT22;5387;48.722;9.110;2023-05-07T14:41:38;13.80;99.90
10678;DHT22;5387;48.722;9.110;2023-05-07T14:44:05;13.70;99.90
10678;DHT22;5387;48.722;9.110;2023-05-07T14:46:31;13.80;99.90
10678;DHT22;5387;48.722;9.110;2023-05-07T14:48:58;13.90;99.90
10678;DHT22;5387;48.722;9.110;2023-05-07T14:51:25;13.80;99.90
10678;DHT22;5387;48.722;9.110;2023-05-07T14:53:53;13.90;99.90
10678;DHT22;5387;48.722;9.110;2023-05-07T14:56:20;14.10;99.90
10678;DHT22;5387;48.722;9.110;2023-05-07T14:58:49;14.10;99.90
10678;DHT22;5387;48.722;9.110;2023-05-07T15:01:16;14.30;99.90
10678;DHT22;5387;48.722;9.110;2023-05-07T15:03:43;14.40;99.90
10678;DHT22;5387;48.722;9.110;2023-05-07T15:06:09;14.50;99.90
10678;DHT22;5387;48.722;9.110;2023-05-07T15:08:37;14.50;99.90
10678;DHT22;5387;48.722;9.110;2023-05-07T15:11:03;14.80;99.90
10678;DHT22;5387;48.722;9.110;2023-05-07T15:13:30;14.70;99.90
10678;DHT22;5387;48.722;9.110;2023-05-07T15:15:58;14.70;99.90
10678;DHT22;5387;48.722;9.110;2023-05-07T15:18:25;14.60;99.90
10678;DHT22;5387;48.722;9.110;2023-05-07T15:20:52;14.50;99.90
10678;DHT22;5387;48.722;9.110;2023-05-07T15:23:19;14.70;99.90
10678;DHT22;5387;48.722;9.110;2023-05-07T15:25:45;14.70;99.90
10678;DHT22;5387;48.722;9.110;2023-05-07T15:28:12;14.80;99.90
10678;DHT22;5387;48.722;9.110;2023-05-07T15:30:39;14.90;99.90
10678;DHT22;5387;48.722;9.110;2023-05-07T15:33:08;15.10;99.90
10678;DHT22;5387;48.722;9.110;2023-05-07T15:35:35;15.30;99.90
10678;DHT22;5387;48.722;9.110;2023-05-07T15:38:02;15.40;99.90
10678;DHT22;5387;48.722;9.110;2023-05-07T15:40:29;15.70;99.90
10678;DHT22;5387;48.722;9.110;2023-05-07T15:42:56;15.90;99.90
10678;DHT22;5387;48.722;9.110;2023-05-07T15:45:23;15.90;99.90
10678;DHT22;5387;48.722;9.110;2023-05-07T15:47:50;16.00;99.90
10678;DHT22;5387;48.722;9.110;2023-05-07T15:50:18;16.10;99.90
10678;DHT22;5387;48.722;9.110;2023-05-07T15:52:45;16.20;99.90